sensor_id;sensor_type;location;lat;lon;timestamp;temperature;humidity
4960;DHT22;2495;48.200;11.532;2022-12-26T00:01:22;11.30;76.30
4960;DHT22;2495;48.200;11.532;2022-12-26T00:06:24;11.30;76.20
4960;DHT22;2495;48.200;11.532;2022-12-26T00:11:24;11.50;77.60
4960;DHT22;2495;48.200;11.532;2022-12-26T00:16:26;11.60;76.40
4960;DHT22;2495;48.200;11.532;2022-12-26T00:21:27;11.50;76.00
4960;DHT22;2495;48.200;11.532;2022-12-26T00:26:30;11.30;76.50
4960;DHT22;2495;48.200;11.532;2022-12-26T00:31:32;11.30;76.10
4960;DHT22;2495;48.200;11.532;2022-12-26T00:36:32;11.30;76.10
4960;DHT22;2495;48.200;11.532;2022-12-26T00:41:33;11.60;77.10
4960;DHT22;2495;48.200;11.532;2022-12-26T00:46:35;11.70;75.90
4960;DHT22;2495;48.200;11.532;2022-12-26T00:51:36;11.60;75.60
4960;DHT22;2495;48.200;11.532;2022-12-26T00:56:37;11.50;75.60
4960;DHT22;2495;48.200;11.532;2022-12-26T01:01:39;11.40;75.50
4960;DHT22;2495;48.200;11.532;2022-12-26T01:06:40;11.40;75.50
4960;DHT22;2495;48.200;11.532;2022-12-26T01:11:41;11.30;75.50
4960;DHT22;2495;48.200;11.532;2022-12-26T01:16:44;11.20;75.60
4960;DHT22;2495;48.200;11.532;2022-12-26T01:21:44;11.10;75.50
4960;DHT22;2495;48.200;11.532;2022-12-26T01:26:45;11.00;75.50
4960;DHT22;2495;48.200;11.532;2022-12-26T01:31:46;11.20;76.50
4960;DHT22;2495;48.200;11.532;2022-12-26T01:36:47;11.30;75.10
4960;DHT22;2495;48.200;11.532;2022-12-26T01:41:49;11.20;74.60
4960;DHT22;2495;48.200;11.532;2022-12-26T01:46:50;11.10;74.40
4960;DHT22;2495;48.200;11.532;2022-12-26T01:51:53;11.00;74.30
4960;DHT22;2495;48.200;11.532;2022-12-26T01:56:53;10.90;74.40
4960;DHT22;2495;48.200;11.532;2022-12-26T02:01:54;10.90;74.40
4960;DHT22;2495;48.200;11.532;2022-12-26T02:06:57;10.80;74.80
4960;DHT22;2495;48.200;11.532;2022-12-26T02:12:06;10.80;74.50
4960;DHT22;2495;48.200;11.532;2022-12-26T02:17:09;10.70;74.80
4960;DHT22;2495;48.200;11.532;2022-12-26T02:38:32;10.50;75.00
4960;DHT22;2495;48.200;11.532;2022-12-26T02:43:38;10.40;75.20
4960;DHT22;2495;48.200;11.532;2022-12-26T02:48:51;10.40;75.00
4960;DHT22;2495;48.200;11.532;2022-12-26T02:54:19;10.40;74.80
4960;DHT22;2495;48.200;11.532;2022-12-26T02:59:57;10.50;75.20
4960;DHT22;2495;48.200;11.532;2022-12-26T03:05:20;10.40;75.10
4960;DHT22;2495;48.200;11.532;2022-12-26T03:10:39;10.40;75.20
4960;DHT22;2495;48.200;11.532;2022-12-26T03:16:04;10.40;74.30
4960;DHT22;2495;48.200;11.532;2022-12-26T03:21:25;10.40;74.80
4960;DHT22;2495;48.200;11.532;2022-12-26T03:26:34;10.40;74.50
4960;DHT22;2495;48.200;11.532;2022-12-26T03:31:39;10.50;74.90
4960;DHT22;2495;48.200;11.532;2022-12-26T03:42:26;10.50;74.70
4960;DHT22;2495;48.200;11.532;2022-12-26T03:53:21;10.60;76.00
4960;DHT22;2495;48.200;11.532;2022-12-26T03:58:36;10.70;75.00
4960;DHT22;2495;48.200;11.532;2022-12-26T04:03:53;10.70;74.70
4960;DHT22;2495;48.200;11.532;2022-12-26T04:09:24;10.50;74.60
4960;DHT22;2495;48.200;11.532;2022-12-26T04:15:02;10.50;74.60
4960;DHT22;2495;48.200;11.532;2022-12-26T04:25:43;10.60;76.00
4960;DHT22;2495;48.200;11.532;2022-12-26T04:31:06;10.60;74.90
4960;DHT22;2495;48.200;11.532;2022-12-26T04:36:28;10.60;74.70
4960;DHT22;2495;48.200;11.532;2022-12-26T04:41:51;10.40;74.40
4960;DHT22;2495;48.200;11.532;2022-12-26T04:47:11;10.30;74.50
4960;DHT22;2495;48.200;11.532;2022-12-26T04:52:18;10.30;74.60
4960;DHT22;2495;48.200;11.532;2022-12-26T04:57:20;10.20;74.40
4960;DHT22;2495;48.200;11.532;2022-12-26T05:02:21;10.20;74.30
4960;DHT22;2495;48.200;11.532;2022-12-26T05:07:42;10.10;75.10
4960;DHT22;2495;48.200;11.532;2022-12-26T05:13:02;10.10;74.70
4960;DHT22;2495;48.200;11.532;2022-12-26T05:18:03;10.10;74.80
4960;DHT22;2495;48.200;11.532;2022-12-26T05:23:25;10.10;74.80
4960;DHT22;2495;48.200;11.532;2022-12-26T05:28:43;10.10;75.00
4960;DHT22;2495;48.200;11.532;2022-12-26T05:33:45;10.10;75.00
4960;DHT22;2495;48.200;11.532;2022-12-26T05:39:05;10.00;74.70
4960;DHT22;2495;48.200;11.532;2022-12-26T05:44:07;10.00;75.20
4960;DHT22;2495;48.200;11.532;2022-12-26T05:49:08;10.00;74.70
4960;DHT22;2495;48.200;11.532;2022-12-26T05:54:10;10.00;75.60
4960;DHT22;2495;48.200;11.532;2022-12-26T05:59:11;10.00;75.30
4960;DHT22;2495;48.200;11.532;2022-12-26T06:04:13;10.00;75.30
4960;DHT22;2495;48.200;11.532;2022-12-26T06:09:14;10.00;75.20
4960;DHT22;2495;48.200;11.532;2022-12-26T06:14:16;10.10;75.50
4960;DHT22;2495;48.200;11.532;2022-12-26T06:19:17;10.10;75.60
4960;DHT22;2495;48.200;11.532;2022-12-26T06:24:19;10.10;75.70
4960;DHT22;2495;48.200;11.532;2022-12-26T06:29:20;10.20;75.50
4960;DHT22;2495;48.200;11.532;2022-12-26T06:34:22;10.30;75.60
4960;DHT22;2495;48.200;11.532;2022-12-26T06:39:32;10.30;75.00
4960;DHT22;2495;48.200;11.532;2022-12-26T06:50:11;10.50;75.60
4960;DHT22;2495;48.200;11.532;2022-12-26T06:55:12;10.60;75.20
4960;DHT22;2495;48.200;11.532;2022-12-26T07:00:14;10.60;74.60
4960;DHT22;2495;48.200;11.532;2022-12-26T07:05:15;10.60;75.50
4960;DHT22;2495;48.200;11.532;2022-12-26T07:10:20;10.60;74.80
4960;DHT22;2495;48.200;11.532;2022-12-26T07:15:21;10.60;75.70
4960;DHT22;2495;48.200;11.532;2022-12-26T07:20:23;10.50;75.60
4960;DHT22;2495;48.200;11.532;2022-12-26T07:25:24;10.50;75.80
4960;DHT22;2495;48.200;11.532;2022-12-26T07:30:26;10.60;76.10
4960;DHT22;2495;48.200;11.532;2022-12-26T07:35:27;10.70;76.10
4960;DHT22;2495;48.200;11.532;2022-12-26T07:40:32;11.00;75.90
4960;DHT22;2495;48.200;11.532;2022-12-26T07:45:34;12.10;74.00
4960;DHT22;2495;48.200;11.532;2022-12-26T07:50:36;13.00;70.70
4960;DHT22;2495;48.200;11.532;2022-12-26T07:55:37;13.40;69.50
4960;DHT22;2495;48.200;11.532;2022-12-26T08:00:39;13.50;68.40
4960;DHT22;2495;48.200;11.532;2022-12-26T08:05:43;13.30;68.80
4960;DHT22;2495;48.200;11.532;2022-12-26T08:10:41;14.10;67.90
4960;DHT22;2495;48.200;11.532;2022-12-26T08:15:43;14.60;66.80
4960;DHT22;2495;48.200;11.532;2022-12-26T08:20:44;15.00;67.40
4960;DHT22;2495;48.200;11.532;2022-12-26T08:25:45;15.60;64.60
4960;DHT22;2495;48.200;11.532;2022-12-26T08:30:47;14.70;65.10
4960;DHT22;2495;48.200;11.532;2022-12-26T09:11:16;18.10;58.00
4960;DHT22;2495;48.200;11.532;2022-12-26T09:16:42;19.10;57.50
4960;DHT22;2495;48.200;11.532;2022-12-26T09:21:33;17.80;57.80
4960;DHT22;2495;48.200;11.532;2022-12-26T09:26:44;17.70;57.40
4960;DHT22;2495;48.200;11.532;2022-12-26T09:31:51;16.90;59.20
4960;DHT22;2495;48.200;11.532;2022-12-26T09:37:08;16.60;58.70
4960;DHT22;2495;48.200;11.532;2022-12-26T10:01:21;21.90;50.60
4960;DHT22;2495;48.200;11.532;2022-12-26T10:06:32;22.90;48.90
4960;DHT22;2495;48.200;11.532;2022-12-26T10:17:18;23.50;45.80
4960;DHT22;2495;48.200;11.532;2022-12-26T10:27:52;20.20;48.90
4960;DHT22;2495;48.200;11.532;2022-12-26T10:32:55;20.30;49.50
4960;DHT22;2495;48.200;11.532;2022-12-26T10:37:56;20.60;49.50
4960;DHT22;2495;48.200;11.532;2022-12-26T10:48:32;21.00;48.60
4960;DHT22;2495;48.200;11.532;2022-12-26T10:53:35;21.20;48.20
4960;DHT22;2495;48.200;11.532;2022-12-26T10:58:36;20.60;49.30
4960;DHT22;2495;48.200;11.532;2022-12-26T11:03:39;20.40;49.20
4960;DHT22;2495;48.200;11.532;2022-12-26T11:08:45;19.80;49.90
4960;DHT22;2495;48.200;11.532;2022-12-26T11:13:50;19.30;50.20
4960;DHT22;2495;48.200;11.532;2022-12-26T11:18:48;18.90;50.50
4960;DHT22;2495;48.200;11.532;2022-12-26T11:23:49;18.60;51.00
4960;DHT22;2495;48.200;11.532;2022-12-26T11:34:29;18.00;52.50
4960;DHT22;2495;48.200;11.532;2022-12-26T11:39:30;17.90;54.00
4960;DHT22;2495;48.200;11.532;2022-12-26T11:44:35;17.80;53.30
4960;DHT22;2495;48.200;11.532;2022-12-26T12:00:23;17.40;55.30
4960;DHT22;2495;48.200;11.532;2022-12-26T12:16:28;16.80;58.40
4960;DHT22;2495;48.200;11.532;2022-12-26T12:21:38;16.40;61.70
4960;DHT22;2495;48.200;11.532;2022-12-26T12:26:41;16.10;64.00
4960;DHT22;2495;48.200;11.532;2022-12-26T12:37:10;15.60;69.70
4960;DHT22;2495;48.200;11.532;2022-12-26T12:52:38;15.20;72.60
4960;DHT22;2495;48.200;11.532;2022-12-26T13:03:31;14.90;75.10
4960;DHT22;2495;48.200;11.532;2022-12-26T13:08:39;14.70;75.30
4960;DHT22;2495;48.200;11.532;2022-12-26T13:13:45;14.50;76.30
4960;DHT22;2495;48.200;11.532;2022-12-26T13:18:48;14.30;77.00
4960;DHT22;2495;48.200;11.532;2022-12-26T13:24:05;14.20;78.70
4960;DHT22;2495;48.200;11.532;2022-12-26T13:29:40;14.10;79.80
4960;DHT22;2495;48.200;11.532;2022-12-26T13:34:41;14.20;79.50
4960;DHT22;2495;48.200;11.532;2022-12-26T13:39:41;14.10;80.80
4960;DHT22;2495;48.200;11.532;2022-12-26T13:44:43;13.90;82.30
4960;DHT22;2495;48.200;11.532;2022-12-26T14:31:54;13.20;85.60
4960;DHT22;2495;48.200;11.532;2022-12-26T14:54:35;12.70;87.20
4960;DHT22;2495;48.200;11.532;2022-12-26T14:59:35;12.60;87.80
4960;DHT22;2495;48.200;11.532;2022-12-26T15:10:22;12.90;88.40
4960;DHT22;2495;48.200;11.532;2022-12-26T15:27:19;12.70;87.40
4960;DHT22;2495;48.200;11.532;2022-12-26T15:38:13;12.70;87.50
4960;DHT22;2495;48.200;11.532;2022-12-26T15:54:35;12.40;88.90
4960;DHT22;2495;48.200;11.532;2022-12-26T16:15:21;12.50;88.70
4960;DHT22;2495;48.200;11.532;2022-12-26T16:25:46;12.50;86.80
4960;DHT22;2495;48.200;11.532;2022-12-26T16:30:47;12.00;87.50
4960;DHT22;2495;48.200;11.532;2022-12-26T16:35:49;11.90;87.00
4960;DHT22;2495;48.200;11.532;2022-12-26T16:40:51;11.70;87.30
4960;DHT22;2495;48.200;11.532;2022-12-26T16:45:56;11.50;88.00
4960;DHT22;2495;48.200;11.532;2022-12-26T16:50:57;11.40;88.40
4960;DHT22;2495;48.200;11.532;2022-12-26T16:56:34;11.40;88.60
4960;DHT22;2495;48.200;11.532;2022-12-26T17:01:21;11.40;89.40
4960;DHT22;2495;48.200;11.532;2022-12-26T17:06:30;11.40;89.50
4960;DHT22;2495;48.200;11.532;2022-12-26T17:11:31;11.40;89.50
4960;DHT22;2495;48.200;11.532;2022-12-26T17:16:34;11.40;89.30
4960;DHT22;2495;48.200;11.532;2022-12-26T17:21:39;11.40;88.90
4960;DHT22;2495;48.200;11.532;2022-12-26T17:26:42;11.30;89.40
4960;DHT22;2495;48.200;11.532;2022-12-26T17:31:42;11.50;90.30
4960;DHT22;2495;48.200;11.532;2022-12-26T17:36:44;11.90;90.10
4960;DHT22;2495;48.200;11.532;2022-12-26T17:41:56;12.10;89.30
4960;DHT22;2495;48.200;11.532;2022-12-26T17:58:50;11.80;90.00
4960;DHT22;2495;48.200;11.532;2022-12-26T18:03:57;11.80;88.70
4960;DHT22;2495;48.200;11.532;2022-12-26T18:09:05;11.60;88.20
4960;DHT22;2495;48.200;11.532;2022-12-26T18:14:12;11.50;88.40
4960;DHT22;2495;48.200;11.532;2022-12-26T18:19:23;11.40;88.40
4960;DHT22;2495;48.200;11.532;2022-12-26T19:05:17;11.80;86.40
4960;DHT22;2495;48.200;11.532;2022-12-26T19:17:19;11.50;86.10
4960;DHT22;2495;48.200;11.532;2022-12-26T19:42:01;11.20;86.70
4960;DHT22;2495;48.200;11.532;2022-12-26T19:47:04;11.20;86.20
4960;DHT22;2495;48.200;11.532;2022-12-26T19:52:05;11.30;85.80
4960;DHT22;2495;48.200;11.532;2022-12-26T19:57:06;11.10;85.30
4960;DHT22;2495;48.200;11.532;2022-12-26T20:02:09;11.10;85.40
4960;DHT22;2495;48.200;11.532;2022-12-26T20:07:09;11.00;85.50
4960;DHT22;2495;48.200;11.532;2022-12-26T20:12:10;10.90;85.70
4960;DHT22;2495;48.200;11.532;2022-12-26T20:17:12;10.90;85.50
4960;DHT22;2495;48.200;11.532;2022-12-26T20:22:18;10.80;85.20
4960;DHT22;2495;48.200;11.532;2022-12-26T20:27:29;10.70;85.00
4960;DHT22;2495;48.200;11.532;2022-12-26T20:32:31;10.80;84.30
4960;DHT22;2495;48.200;11.532;2022-12-26T20:37:35;10.80;84.30
4960;DHT22;2495;48.200;11.532;2022-12-26T20:42:37;10.80;84.00
4960;DHT22;2495;48.200;11.532;2022-12-26T20:47:59;10.90;83.70
4960;DHT22;2495;48.200;11.532;2022-12-26T20:53:08;10.90;83.70
4960;DHT22;2495;48.200;11.532;2022-12-26T20:58:28;11.10;85.50
4960;DHT22;2495;48.200;11.532;2022-12-26T21:03:30;11.20;81.40
4960;DHT22;2495;48.200;11.532;2022-12-26T21:08:34;11.10;81.90
4960;DHT22;2495;48.200;11.532;2022-12-26T22:15:22;10.30;88.50
4960;DHT22;2495;48.200;11.532;2022-12-26T22:20:44;10.20;88.30
4960;DHT22;2495;48.200;11.532;2022-12-26T22:25:50;10.30;89.50
4960;DHT22;2495;48.200;11.532;2022-12-26T22:30:45;10.30;88.30
4960;DHT22;2495;48.200;11.532;2022-12-26T22:35:49;10.20;88.80
